createdAt,value
2022-10-29T00:05:12.957Z,6.70
2022-10-29T00:11:08.139Z,5.70
2022-10-29T00:17:02.853Z,5.27
2022-10-29T00:22:56.027Z,6.20
2022-10-29T00:28:49.300Z,5.57
2022-10-29T00:34:43.853Z,5.90
2022-10-29T00:40:38.723Z,5.83
2022-10-29T00:46:35.435Z,4.20
2022-10-29T00:52:33.691Z,4.70
2022-10-29T00:58:27.598Z,4.90
2022-10-29T01:04:22.037Z,4.20
2022-10-29T01:10:18.120Z,5.20
2022-10-29T01:16:20.737Z,5.00
2022-10-29T01:22:21.120Z,5.30
2022-10-29T01:34:29.968Z,5.17
2022-10-29T01:40:27.329Z,5.20
2022-10-29T01:46:24.155Z,5.20
2022-10-29T01:52:21.514Z,5.20
2022-10-29T02:04:31.186Z,3.83
2022-10-29T02:10:32.832Z,3.43
2022-10-29T02:16:27.362Z,3.87
2022-10-29T02:22:20.203Z,3.53
2022-10-29T02:28:14.841Z,4.63
2022-10-29T02:34:07.765Z,4.50
2022-10-29T02:40:00.990Z,5.20
2022-10-29T02:46:17.015Z,4.90
2022-10-29T02:52:10.049Z,4.80
2022-10-29T02:58:03.283Z,4.97
2022-10-29T03:03:57.895Z,5.00
2022-10-29T03:09:51.358Z,4.90
2022-10-29T03:15:46.077Z,5.40
2022-10-29T03:21:40.734Z,5.10
2022-10-29T03:27:34.001Z,4.80
2022-10-29T03:33:28.024Z,4.97
2022-10-29T03:39:22.603Z,6.00
2022-10-29T03:45:16.047Z,5.07
2022-10-29T03:51:09.164Z,6.40
2022-10-29T03:57:03.742Z,6.10
2022-10-29T04:02:57.487Z,6.20
2022-10-29T04:08:51.016Z,6.40
2022-10-29T04:14:46.101Z,5.67
2022-10-29T04:21:18.601Z,4.73
2022-10-29T04:33:09.937Z,5.40
2022-10-29T04:39:03.369Z,6.30
2022-10-29T04:44:56.734Z,5.70
2022-10-29T04:50:51.304Z,6.50
2022-10-29T04:56:44.529Z,5.33
2022-10-29T05:02:37.822Z,6.23
2022-10-29T05:08:32.777Z,5.93
2022-10-29T05:14:25.995Z,6.90
2022-10-29T05:20:19.263Z,6.87
2022-10-29T05:26:13.821Z,7.20
2022-10-29T05:32:06.850Z,7.30
2022-10-29T05:38:00.681Z,6.70
2022-10-29T05:43:56.272Z,7.50
2022-10-29T05:49:49.498Z,6.67
2022-10-29T05:55:43.640Z,6.70
2022-10-29T06:01:38.338Z,6.43
2022-10-29T06:07:31.701Z,7.33
2022-10-29T06:13:24.945Z,7.07
2022-10-29T06:19:19.519Z,7.13
2022-10-29T06:25:12.829Z,6.60
2022-10-29T06:31:06.361Z,6.70
2022-10-29T06:37:00.563Z,6.60
2022-10-29T06:43:00.911Z,5.17
2022-10-29T06:48:54.192Z,6.60
2022-10-29T06:54:48.787Z,5.60
2022-10-29T07:00:42.761Z,5.73
2022-10-29T07:06:36.471Z,5.83
2022-10-29T07:12:31.070Z,6.93
2022-10-29T07:18:24.348Z,6.23
2022-10-29T07:24:18.061Z,4.20
2022-10-29T07:30:13.395Z,5.50
2022-10-29T07:36:07.069Z,6.07
2022-10-29T07:42:00.379Z,7.17
2022-10-29T07:48:03.080Z,7.50
2022-10-29T07:53:57.069Z,7.23
2022-10-29T07:59:50.631Z,8.40
2022-10-29T08:05:46.159Z,7.90
2022-10-29T08:11:40.020Z,9.03
2022-10-29T08:17:33.088Z,7.57
2022-10-29T08:23:33.656Z,8.80
2022-10-29T08:29:28.427Z,8.10
2022-10-29T08:35:21.699Z,10.23
2022-10-29T08:41:31.359Z,9.53
2022-10-29T08:47:25.440Z,8.90
2022-10-29T08:53:23.614Z,9.50
2022-10-29T08:59:22.120Z,11.40
2022-10-29T09:05:16.585Z,11.63
2022-10-29T09:11:22.965Z,12.53
2022-10-29T09:17:27.660Z,15.67
2022-10-29T09:23:31.717Z,16.13
2022-10-29T09:29:46.336Z,14.70
2022-10-29T09:35:45.742Z,16.37
2022-10-29T09:41:39.841Z,15.90
2022-10-29T09:47:44.355Z,16.20
2022-10-29T09:53:39.091Z,16.27
2022-10-29T09:59:36.749Z,15.50
2022-10-29T10:05:31.936Z,13.90
2022-10-29T10:11:28.915Z,13.70
2022-10-29T10:17:22.194Z,14.00
2022-10-29T10:23:23.278Z,14.17
2022-10-29T10:29:21.354Z,13.30
2022-10-29T10:35:32.123Z,14.33
2022-10-29T10:41:28.772Z,12.73
2022-10-29T10:47:27.253Z,13.67
2022-10-29T10:53:22.765Z,12.43
2022-10-29T10:59:18.677Z,13.67
2022-10-29T11:05:19.371Z,14.80
2022-10-29T11:11:17.431Z,12.93
2022-10-29T11:17:26.539Z,12.60
2022-10-29T11:23:32.497Z,12.50
2022-10-29T11:29:33.109Z,13.50
2022-10-29T11:35:38.462Z,11.57
2022-10-29T11:41:39.700Z,12.20
2022-10-29T11:47:45.852Z,11.90
2022-10-29T11:53:55.928Z,12.43
2022-10-29T12:00:14.255Z,11.13
2022-10-29T12:06:15.844Z,11.20
2022-10-29T12:12:14.209Z,10.53
2022-10-29T12:18:23.501Z,10.10
2022-10-29T12:24:32.283Z,9.00
2022-10-29T12:30:26.389Z,8.47
2022-10-29T12:37:13.815Z,7.93
2022-10-29T12:43:15.006Z,9.80
2022-10-29T12:49:13.325Z,8.00
2022-10-29T12:55:09.065Z,7.30
2022-10-29T13:01:03.842Z,9.47
2022-10-29T13:07:24.339Z,5.10
2022-10-29T13:13:26.342Z,7.70
2022-10-29T13:19:37.252Z,6.70
2022-10-29T13:25:52.031Z,5.90
2022-10-29T13:31:49.413Z,6.80
2022-10-29T13:38:16.399Z,5.50
2022-10-29T13:44:13.195Z,7.13
2022-10-29T13:50:07.900Z,5.20
2022-10-29T13:56:03.128Z,5.97
2022-10-29T14:02:04.197Z,4.90
2022-10-29T14:08:02.384Z,4.30
2022-10-29T14:14:00.511Z,5.20
2022-10-29T14:19:54.476Z,5.97
2022-10-29T14:25:52.863Z,6.40
2022-10-29T14:31:47.672Z,8.30
2022-10-29T14:38:32.111Z,7.10
2022-10-29T14:44:35.141Z,6.67
2022-10-29T14:50:37.463Z,6.60
2022-10-29T14:56:36.753Z,7.00
2022-10-29T15:02:38.686Z,7.63
2022-10-29T15:08:40.231Z,7.63
2022-10-29T15:14:38.060Z,6.90
2022-10-29T15:20:36.630Z,7.27
2022-10-29T15:26:31.643Z,6.83
2022-10-29T15:32:27.413Z,5.80
2022-10-29T15:39:14.025Z,6.50
2022-10-29T15:45:24.309Z,6.40
2022-10-29T15:51:17.978Z,6.60
2022-10-29T15:57:13.860Z,5.97
2022-10-29T16:03:16.333Z,7.57
2022-10-29T16:09:19.094Z,8.00
2022-10-29T16:15:17.402Z,8.13
2022-10-29T16:21:15.581Z,8.00
2022-10-29T16:27:14.577Z,6.93
2022-10-29T16:33:07.963Z,9.70
2022-10-29T16:39:02.541Z,7.57
2022-10-29T16:44:55.804Z,7.57
2022-10-29T16:50:49.086Z,7.37
2022-10-29T16:56:43.647Z,7.70
2022-10-29T17:02:37.842Z,7.73
2022-10-29T17:08:33.160Z,8.20
2022-10-29T17:14:27.794Z,7.80
2022-10-29T17:20:21.163Z,8.23
2022-10-29T17:26:14.030Z,8.20
2022-10-29T17:32:09.433Z,8.57
2022-10-29T17:38:02.787Z,9.33
2022-10-29T17:43:56.018Z,10.83
2022-10-29T17:49:50.600Z,10.80
2022-10-29T17:55:43.863Z,12.80
2022-10-29T18:01:37.157Z,12.73
2022-10-29T18:07:31.461Z,9.53
2022-10-29T18:13:24.916Z,10.13
2022-10-29T18:19:18.246Z,9.00
2022-10-29T18:25:13.265Z,12.20
2022-10-29T18:31:06.769Z,9.27
2022-10-29T18:37:00.013Z,8.00
2022-10-29T18:42:54.611Z,8.67
2022-10-29T18:48:49.335Z,9.23
2022-10-29T18:54:42.584Z,9.77
2022-10-29T19:00:36.825Z,9.37
2022-10-29T19:06:32.653Z,8.80
2022-10-29T19:12:25.901Z,8.70
2022-10-29T19:18:20.521Z,9.20
2022-10-29T19:24:15.212Z,10.97
2022-10-29T19:30:09.784Z,10.60
2022-10-29T19:36:05.293Z,11.67
2022-10-29T19:41:58.530Z,10.83
2022-10-29T19:47:51.771Z,10.33
2022-10-29T19:53:46.437Z,11.20
2022-10-29T19:59:39.698Z,10.53
2022-10-29T20:11:28.470Z,11.30
2022-10-29T20:17:21.365Z,10.83
2022-10-29T20:23:14.650Z,11.53
2022-10-29T20:29:09.219Z,12.70
2022-10-29T20:35:02.448Z,11.17
2022-10-29T20:40:55.290Z,11.60
2022-10-29T20:46:49.961Z,11.97
2022-10-29T20:52:48.085Z,12.77
2022-10-29T20:58:42.069Z,14.73
2022-10-29T21:04:36.660Z,13.37
2022-10-29T21:10:29.527Z,12.10
2022-10-29T21:16:24.490Z,10.93
2022-10-29T21:22:19.383Z,12.40
2022-10-29T21:28:12.978Z,11.40
2022-10-29T21:34:06.608Z,10.33
2022-10-29T21:40:05.020Z,12.70
2022-10-29T21:45:59.892Z,12.80
2022-10-29T21:51:53.536Z,12.33
2022-10-29T21:57:48.106Z,15.67
2022-10-29T22:03:42.847Z,19.10
2022-10-29T22:09:36.049Z,15.27
2022-10-29T22:15:30.768Z,15.40
2022-10-29T22:21:25.684Z,15.00
2022-10-29T22:27:18.657Z,14.50
2022-10-29T22:33:13.818Z,14.40
2022-10-29T22:39:07.107Z,13.83
2022-10-29T22:45:00.383Z,12.23
2022-10-29T22:51:02.555Z,11.90
2022-10-29T22:56:55.791Z,10.60
2022-10-29T23:02:49.070Z,10.93
2022-10-29T23:08:44.571Z,10.57
2022-10-29T23:14:38.040Z,11.03
2022-10-29T23:20:31.214Z,12.10
2022-10-29T23:26:27.486Z,14.30
2022-10-29T23:32:20.746Z,11.40
2022-10-29T23:38:13.984Z,11.30
2022-10-29T23:44:08.535Z,10.43
2022-10-29T23:50:01.781Z,10.97
2022-10-29T23:55:55.037Z,9.47
